Time;durP1;ratioP1;P1;durP2;ratioP2;P2;SDS_P1;SDS_P2;PMS_P1;PMS_P2;Temp;Humidity;BMP_temperature;BMP_pressure;BME280_temperature;BME280_humidity;BME280_pressure;Samples;Min_cycle;Max_cycle;Signal;HPM_P1;HPM_P2
2023/10/04 00:01:46;;;;;;;6.77;1.80;;;13.50;1.00;;;;;;10435640;28;20562;-78
2023/10/04 00:07:07;;;;;;;6.10;2.10;;;13.50;99.90;;;;;;10437217;28;20481;-78
2023/10/04 00:12:28;;;;;;;5.13;1.83;;;13.50;1.00;;;;;;10432140;28;20498;-76
2023/10/04 00:17:52;;;;;;;9.10;2.20;;;13.50;99.90;;;;;;10432162;28;20374;-77
2023/10/04 00:23:14;;;;;;;7.33;1.90;;;13.40;99.90;;;;;;10478181;28;20375;-75
2023/10/04 00:28:38;;;;;;;6.30;1.70;;;13.40;1.00;;;;;;10456647;28;20227;-77
2023/10/04 00:33:59;;;;;;;5.47;1.60;;;13.40;1.00;;;;;;10424905;28;20208;-77
2023/10/04 00:39:20;;;;;;;6.40;1.93;;;13.40;1.00;;;;;;10395726;28;20196;-76
2023/10/04 00:44:41;;;;;;;3.83;1.20;;;13.40;84.60;;;;;;10421223;28;20287;-78
2023/10/04 00:50:14;;;;;;;6.93;1.77;;;13.30;1.00;;;;;;10420985;28;20389;-77
2023/10/04 00:55:46;;;;;;;3.67;1.30;;;13.40;99.90;;;;;;10435038;28;20204;-76
2023/10/04 01:01:07;;;;;;;7.07;1.63;;;13.40;52.50;;;;;;10435053;28;20195;-78
2023/10/04 01:06:30;;;;;;;5.30;1.57;;;13.30;1.00;;;;;;10435064;28;20421;-77
2023/10/04 01:11:52;;;;;;;4.60;1.43;;;13.30;99.90;;;;;;10427378;28;20274;-77
2023/10/04 01:17:13;;;;;;;7.50;1.77;;;13.30;99.90;;;;;;10434341;28;20192;-76
2023/10/04 01:22:34;;;;;;;6.50;2.40;;;13.20;1.00;;;;;;10394155;28;20190;-78
2023/10/04 01:27:55;;;;;;;10.77;1.77;;;13.20;99.90;;;;;;10422017;28;20226;-77
2023/10/04 01:33:19;;;;;;;5.77;1.67;;;13.20;99.90;;;;;;10434679;28;20199;-78
2023/10/04 01:38:42;;;;;;;3.93;1.43;;;13.10;1.00;;;;;;10435471;28;20194;-76
2023/10/04 01:44:06;;;;;;;5.20;1.37;;;13.00;99.90;;;;;;10433811;28;20206;-77
2023/10/04 01:49:28;;;;;;;3.43;1.40;;;13.10;1.00;;;;;;10441717;28;20300;-78
2023/10/04 01:54:51;;;;;;;5.23;1.83;;;13.10;1.00;;;;;;10419422;28;20204;-77
2023/10/04 02:00:18;;;;;;;5.73;1.87;;;13.10;1.00;;;;;;10441653;28;20541;-78
2023/10/04 02:05:41;;;;;;;8.60;1.90;;;13.10;1.00;;;;;;10413385;28;20206;-78
2023/10/04 02:11:05;;;;;;;4.00;1.57;;;13.10;1.00;;;;;;10394919;28;20223;-78
2023/10/04 02:16:26;;;;;;;6.50;2.43;;;13.10;1.00;;;;;;10400918;28;20218;-77
2023/10/04 02:21:47;;;;;;;5.27;1.50;;;13.00;8.40;;;;;;10413620;28;20247;-76
2023/10/04 02:27:09;;;;;;;3.27;1.50;;;13.00;1.00;;;;;;10412154;28;20544;-77
2023/10/04 02:32:31;;;;;;;5.10;1.70;;;13.00;1.00;;;;;;10426868;28;20204;-78
2023/10/04 02:38:00;;;;;;;4.13;1.60;;;12.90;1.00;;;;;;10401286;28;20213;-77
2023/10/04 02:43:25;;;;;;;3.10;1.20;;;12.80;1.00;;;;;;10396334;28;20238;-78
2023/10/04 02:48:48;;;;;;;6.63;1.83;;;12.80;1.00;;;;;;10397582;28;20271;-79
2023/10/04 02:54:10;;;;;;;12.20;1.90;;;12.80;1.00;;;;;;10399295;28;20278;-77
2023/10/04 02:59:32;;;;;;;6.50;2.07;;;12.80;99.90;;;;;;10396944;28;20527;-78
2023/10/04 03:04:53;;;;;;;9.40;3.47;;;12.70;1.00;;;;;;10378260;28;20224;-77
2023/10/04 03:10:27;;;;;;;4.63;2.43;;;12.70;1.00;;;;;;10432186;28;20562;-76
2023/10/04 03:15:52;;;;;;;6.13;1.83;;;12.60;13.60;;;;;;10427006;28;20209;-78
2023/10/04 03:21:20;;;;;;;6.37;2.27;;;12.60;13.60;;;;;;10411237;28;20265;-77
2023/10/04 03:26:44;;;;;;;8.90;2.00;;;12.50;99.90;;;;;;10413067;28;20223;-76
2023/10/04 03:32:09;;;;;;;8.00;1.73;;;12.60;99.90;;;;;;10422554;28;20225;-78
2023/10/04 03:37:31;;;;;;;6.77;1.83;;;12.60;99.90;;;;;;10451726;28;20190;-78
2023/10/04 03:42:53;;;;;;;5.30;2.00;;;12.60;99.90;;;;;;10450479;28;20233;-79
2023/10/04 03:48:17;;;;;;;7.33;2.27;;;12.60;23.50;;;;;;10436984;28;20418;-78
2023/10/04 03:53:49;;;;;;;5.17;1.60;;;12.60;1.00;;;;;;10436816;28;20190;-78
2023/10/04 03:59:11;;;;;;;5.43;1.67;;;12.60;1.00;;;;;;10434755;28;20215;-76
2023/10/04 04:04:33;;;;;;;10.33;1.97;;;12.60;1.00;;;;;;10436581;28;20205;-77
2023/10/04 04:09:55;;;;;;;10.73;2.37;;;12.50;1.00;;;;;;10435772;28;20242;-76
2023/10/04 04:15:18;;;;;;;10.77;1.77;;;12.60;99.90;;;;;;10418622;28;20253;-77
2023/10/04 04:20:42;;;;;;;6.90;2.30;;;12.60;1.00;;;;;;10411429;28;20200;-77
2023/10/04 04:26:05;;;;;;;4.97;1.50;;;12.50;99.90;;;;;;10409087;28;20198;-76
2023/10/04 04:31:29;;;;;;;12.07;2.23;;;12.50;21.50;;;;;;10428760;28;20221;-77
2023/10/04 04:36:51;;;;;;;6.80;2.27;;;12.50;99.90;;;;;;10449714;28;20486;-76
2023/10/04 04:42:20;;;;;;;7.73;1.90;;;12.50;96.50;;;;;;10448820;28;20223;-77
2023/10/04 04:47:44;;;;;;;12.57;2.37;;;12.50;1.00;;;;;;10436183;28;20517;-77
2023/10/04 04:53:09;;;;;;;8.40;1.80;;;12.50;99.90;;;;;;10434748;28;20241;-77
2023/10/04 04:58:31;;;;;;;10.63;2.07;;;12.50;99.90;;;;;;10434473;28;20284;-76
2023/10/04 05:03:52;;;;;;;6.93;2.47;;;12.50;1.00;;;;;;10434892;28;20217;-78
2023/10/04 05:09:16;;;;;;;8.30;2.20;;;12.60;1.00;;;;;;10434684;28;20397;-77
2023/10/04 05:14:38;;;;;;;7.43;2.30;;;12.70;1.00;;;;;;10404555;28;20249;-77
2023/10/04 05:19:59;;;;;;;11.90;2.07;;;12.70;1.00;;;;;;10396499;28;20190;-76
2023/10/04 05:25:20;;;;;;;9.70;2.53;;;12.80;30.40;;;;;;10404104;28;20324;-76
2023/10/04 05:30:44;;;;;;;7.20;2.00;;;12.80;99.90;;;;;;10443347;28;20239;-76
2023/10/04 05:36:06;;;;;;;8.10;2.00;;;12.80;99.90;;;;;;10442877;28;20222;-77
2023/10/04 05:41:31;;;;;;;4.77;2.20;;;12.80;99.90;;;;;;10442316;28;20253;-78
2023/10/04 05:46:52;;;;;;;8.32;3.33;;;12.90;1.00;;;;;;10442453;28;20517;-76
2023/10/04 05:52:14;;;;;;;4.13;1.83;;;12.90;87.20;;;;;;10442028;28;20204;-77
2023/10/04 05:57:36;;;;;;;8.73;2.37;;;12.90;1.00;;;;;;10441236;28;20448;-77
2023/10/04 06:02:58;;;;;;;3.67;1.60;;;13.00;99.90;;;;;;10438828;28;20460;-77
2023/10/04 06:08:21;;;;;;;8.73;2.00;;;13.10;99.90;;;;;;10454587;28;20238;-76
2023/10/04 06:13:43;;;;;;;6.87;2.10;;;13.20;8.20;;;;;;10433667;28;20210;-77
2023/10/04 06:19:04;;;;;;;5.57;2.23;;;13.20;1.00;;;;;;10415984;28;20890;-77
2023/10/04 06:24:33;;;;;;;9.10;2.30;;;13.20;1.00;;;;;;10398853;28;20222;-77
2023/10/04 06:29:54;;;;;;;6.10;2.00;;;13.20;1.00;;;;;;10419882;28;20228;-76
2023/10/04 06:35:16;;;;;;;6.17;2.43;;;13.30;1.00;;;;;;10439657;28;20204;-77
2023/10/04 06:40:38;;;;;;;9.87;2.50;;;13.40;1.00;;;;;;10453596;28;20195;-77
2023/10/04 06:45:59;;;;;;;7.33;2.23;;;13.40;99.90;;;;;;10438334;28;20208;-77
2023/10/04 06:51:21;;;;;;;7.00;2.47;;;14.20;99.90;;;;;;10439241;28;20261;-77
2023/10/04 06:56:44;;;;;;;8.35;2.03;;;15.00;99.90;;;;;;10439475;28;20185;-77
2023/10/04 07:02:06;;;;;;;6.13;2.47;;;15.30;1.00;;;;;;10434317;28;20252;-78
2023/10/04 07:07:27;;;;;;;7.57;2.75;;;15.70;1.00;;;;;;10439485;28;20230;-77
2023/10/04 07:12:51;;;;;;;6.72;2.00;;;15.50;1.00;;;;;;10439641;28;20389;-76
2023/10/04 07:18:13;;;;;;;4.72;2.53;;;15.00;1.00;;;;;;10408995;28;20236;-89
2023/10/04 07:23:35;;;;;;;8.48;2.60;;;14.50;99.90;;;;;;10431932;28;20195;-77
2023/10/04 07:29:00;;;;;;;5.63;2.10;;;14.30;99.90;;;;;;10430833;28;22751;-76
2023/10/04 07:34:27;;;;;;;8.43;2.13;;;14.30;99.90;;;;;;10427681;28;20280;-76
2023/10/04 07:39:49;;;;;;;8.18;2.05;;;14.40;99.90;;;;;;10421343;28;20200;-77
2023/10/04 07:45:12;;;;;;;6.50;3.05;;;14.40;99.90;;;;;;10407365;28;20258;-77
2023/10/04 07:50:34;;;;;;;8.82;2.40;;;14.50;99.90;;;;;;10445556;28;20231;-79
2023/10/04 07:55:55;;;;;;;4.78;1.60;;;14.70;99.90;;;;;;10376693;28;20200;-79
2023/10/04 08:01:17;;;;;;;7.63;1.95;;;15.00;92.50;;;;;;10434103;28;20216;-78
2023/10/04 08:06:44;;;;;;;7.43;2.30;;;15.10;1.00;;;;;;10415224;28;20228;-77
2023/10/04 08:12:07;;;;;;;8.48;2.40;;;15.70;1.00;;;;;;10427775;28;20213;-79
2023/10/04 08:17:29;;;;;;;5.07;1.95;;;16.20;1.00;;;;;;10445240;28;20443;-78
2023/10/04 08:22:51;;;;;;;9.18;1.98;;;16.40;1.00;;;;;;10428014;28;20209;-79
2023/10/04 08:28:12;;;;;;;6.20;1.70;;;16.30;1.00;;;;;;10430730;28;20269;-85
2023/10/04 08:33:34;;;;;;;5.32;1.80;;;16.00;1.00;;;;;;10450946;28;20508;-78
2023/10/04 08:38:55;;;;;;;9.52;2.42;;;15.80;1.00;;;;;;10431415;28;20202;-77
2023/10/04 08:44:16;;;;;;;7.10;1.58;;;15.70;1.00;;;;;;10430997;28;20190;-79
2023/10/04 08:49:50;;;;;;;5.15;1.98;;;15.80;1.00;;;;;;10445939;28;20252;-80
2023/10/04 08:55:16;;;;;;;3.88;1.60;;;15.70;1.00;;;;;;10428136;28;20235;-77
2023/10/04 09:00:43;;;;;;;5.85;2.00;;;15.60;1.00;;;;;;10439685;28;20206;-80
2023/10/04 09:06:05;;;;;;;4.93;1.67;;;15.70;1.00;;;;;;10438933;28;20202;-80
2023/10/04 09:11:26;;;;;;;5.95;1.98;;;16.00;1.00;;;;;;10440214;28;20383;-80
2023/10/04 09:17:13;;;;;;;8.38;2.05;;;15.90;1.00;;;;;;10472976;28;20212;-87
2023/10/04 09:22:37;;;;;;;4.57;1.92;;;15.70;1.00;;;;;;10451635;28;20223;-82
2023/10/04 09:27:58;;;;;;;5.90;2.03;;;15.40;1.00;;;;;;10450049;28;20231;-77
2023/10/04 09:33:28;;;;;;;5.50;2.40;;;15.20;99.90;;;;;;10437936;28;20220;-76
2023/10/04 09:39:07;;;;;;;5.65;2.20;;;15.10;99.90;;;;;;10469502;28;20559;-77
2023/10/04 09:44:30;;;;;;;7.65;2.25;;;15.10;1.00;;;;;;10459416;28;20250;-75
2023/10/04 09:49:51;;;;;;;4.90;1.93;;;14.90;1.00;;;;;;10435635;28;20235;-76
2023/10/04 09:55:13;;;;;;;8.27;2.58;;;15.10;1.00;;;;;;10433228;28;20386;-76
2023/10/04 10:00:35;;;;;;;6.40;2.08;;;15.40;1.00;;;;;;10468245;28;20216;-77
2023/10/04 10:05:57;;;;;;;8.50;2.67;;;15.50;1.00;;;;;;10463275;28;20202;-77
2023/10/04 10:11:19;;;;;;;3.70;2.03;;;15.70;1.00;;;;;;10408831;28;20236;-78
2023/10/04 10:16:42;;;;;;;5.20;2.53;;;16.90;25.90;;;;;;10453322;28;20199;-75
2023/10/04 10:22:11;;;;;;;13.43;5.40;;;18.20;1.00;;;;;;10435864;28;20683;-77
2023/10/04 10:27:32;;;;;;;7.78;2.80;;;17.70;1.00;;;;;;10448920;28;20225;-78
2023/10/04 10:32:56;;;;;;;6.22;2.10;;;16.90;1.00;;;;;;10434333;28;20288;-78
2023/10/04 10:38:39;;;;;;;7.45;2.08;;;16.80;1.00;;;;;;10419979;28;20766;-76
2023/10/04 10:44:30;;;;;;;6.22;1.95;;;16.60;1.00;;;;;;10435227;28;20544;-76
2023/10/04 10:49:56;;;;;;;5.57;1.65;;;16.30;1.00;;;;;;10433708;28;20316;-75
2023/10/04 10:55:18;;;;;;;7.22;2.53;;;16.10;1.00;;;;;;10433089;28;20238;-79
2023/10/04 11:00:40;;;;;;;5.78;1.80;;;16.30;1.00;;;;;;10434605;28;20214;-79
2023/10/04 11:06:01;;;;;;;10.23;2.40;;;16.10;1.00;;;;;;10429627;28;20195;-79
2023/10/04 11:11:22;;;;;;;8.23;1.98;;;16.30;1.00;;;;;;10434617;28;20236;-77
2023/10/04 11:16:44;;;;;;;5.07;1.88;;;16.40;1.00;;;;;;10431645;28;20215;-79
2023/10/04 11:22:10;;;;;;;6.15;2.05;;;17.50;1.00;;;;;;10432520;28;20244;-77
2023/10/04 11:27:31;;;;;;;10.50;2.45;;;18.30;1.00;;;;;;10434128;28;20198;-79
2023/10/04 11:32:52;;;;;;;6.03;2.42;;;18.70;99.90;;;;;;10459453;28;20252;-81
2023/10/04 11:38:15;;;;;;;7.53;3.53;;;19.30;1.00;;;;;;10432945;28;20200;-81
2023/10/04 11:43:38;;;;;;;11.80;3.38;;;19.20;1.00;;;;;;10433987;28;20258;-78
2023/10/04 11:49:11;;;;;;;12.07;2.78;;;19.10;1.00;;;;;;10394515;28;20226;-77
2023/10/04 11:54:40;;;;;;;5.88;2.38;;;19.00;1.00;;;;;;10433759;28;20200;-84
2023/10/04 12:00:16;;;;;;;8.80;3.00;;;18.90;1.00;;;;;;10401187;28;20200;-78
2023/10/04 12:05:37;;;;;;;7.60;2.42;;;18.80;1.00;;;;;;10431522;28;20203;-78
2023/10/04 12:11:01;;;;;;;10.65;2.78;;;18.60;1.00;;;;;;10443402;28;20255;-77
2023/10/04 12:16:25;;;;;;;7.90;3.47;;;18.70;1.00;;;;;;10421246;28;20206;-77
2023/10/04 12:21:47;;;;;;;10.35;3.17;;;19.00;1.00;;;;;;10414123;28;20379;-86
2023/10/04 12:27:08;;;;;;;7.68;2.58;;;18.90;1.00;;;;;;10426063;28;20278;-77
2023/10/04 12:32:30;;;;;;;5.15;2.60;;;19.00;1.00;;;;;;10427730;28;20245;-78
2023/10/04 12:37:51;;;;;;;8.15;2.50;;;19.70;1.00;;;;;;10430923;28;20200;-79
2023/10/04 12:43:12;;;;;;;12.65;3.30;;;20.00;1.00;;;;;;10429423;28;20249;-77
2023/10/04 12:48:33;;;;;;;10.70;3.45;;;19.60;1.00;;;;;;10466551;28;20230;-78
2023/10/04 12:53:55;;;;;;;9.48;3.08;;;18.80;1.00;;;;;;10427682;28;20440;-79
2023/10/04 12:59:19;;;;;;;7.35;2.88;;;18.10;1.00;;;;;;10388058;28;20200;-79
2023/10/04 13:04:40;;;;;;;8.82;3.00;;;17.50;1.00;;;;;;10409501;28;20659;-78
2023/10/04 13:10:01;;;;;;;6.47;2.58;;;17.10;1.00;;;;;;10426786;28;20442;-79
2023/10/04 13:15:22;;;;;;;6.28;2.45;;;16.50;1.00;;;;;;10459982;28;20202;-77
2023/10/04 13:20:44;;;;;;;11.88;4.70;;;15.80;99.90;;;;;;10429002;28;20268;-78
2023/10/04 13:26:05;;;;;;;11.73;3.28;;;15.50;1.00;;;;;;10430255;28;20203;-79
2023/10/04 13:31:26;;;;;;;9.38;2.70;;;15.30;99.90;;;;;;10428541;28;20232;-76
2023/10/04 13:36:47;;;;;;;9.55;4.28;;;15.00;99.90;;;;;;10427945;28;20455;-77
2023/10/04 13:42:09;;;;;;;8.57;2.80;;;15.20;1.00;;;;;;10432823;28;20248;-79
2023/10/04 13:47:38;;;;;;;10.75;3.38;;;16.20;1.00;;;;;;10445542;28;20207;-80
2023/10/04 13:53:00;;;;;;;7.32;2.80;;;17.10;99.90;;;;;;10437157;28;20227;-80
2023/10/04 13:58:21;;;;;;;7.40;3.03;;;17.20;85.40;;;;;;10435246;28;20233;-81
2023/10/04 14:03:45;;;;;;;8.20;3.10;;;16.70;99.90;;;;;;10453277;28;20201;-80
2023/10/04 14:09:14;;;;;;;6.05;2.55;;;16.30;99.90;;;;;;10445457;28;20242;-79
2023/10/04 14:14:36;;;;;;;11.82;4.22;;;16.00;1.00;;;;;;10463984;28;20212;-80
2023/10/04 14:20:00;;;;;;;12.48;3.30;;;15.90;1.00;;;;;;10436503;28;20222;-80
2023/10/04 14:25:21;;;;;;;8.35;3.30;;;15.80;1.00;;;;;;10411488;28;20209;-80
2023/10/04 14:30:43;;;;;;;8.38;3.50;;;15.70;99.90;;;;;;10435563;28;20219;-80
2023/10/04 14:36:04;;;;;;;12.65;3.42;;;15.60;99.90;;;;;;10448238;28;20282;-79
2023/10/04 14:41:25;;;;;;;9.70;3.03;;;15.60;99.90;;;;;;10434919;28;20459;-81
2023/10/04 14:46:46;;;;;;;5.63;3.08;;;15.50;99.90;;;;;;10447127;28;20211;-79
2023/10/04 14:52:08;;;;;;;7.65;3.10;;;15.40;99.90;;;;;;10433881;28;20229;-79
2023/10/04 14:57:30;;;;;;;8.27;2.95;;;15.30;1.00;;;;;;10432640;28;20208;-79
2023/10/04 15:02:56;;;;;;;8.93;3.35;;;15.20;1.00;;;;;;10435015;28;20289;-79
2023/10/04 15:08:22;;;;;;;10.68;3.20;;;15.20;1.00;;;;;;10439621;28;20309;-81
2023/10/04 15:13:44;;;;;;;9.75;3.38;;;15.10;1.00;;;;;;10437408;28;20209;-78
2023/10/04 15:19:06;;;;;;;12.70;3.00;;;14.90;99.90;;;;;;10435277;28;20203;-78
2023/10/04 15:24:27;;;;;;;10.77;3.63;;;14.70;1.00;;;;;;10434253;28;20203;-79
2023/10/04 15:29:49;;;;;;;8.63;3.20;;;14.60;1.00;;;;;;10434560;28;20297;-79
2023/10/04 15:35:13;;;;;;;8.13;2.95;;;14.50;1.00;;;;;;10433462;28;20586;-78
2023/10/04 15:40:35;;;;;;;10.10;3.50;;;14.50;1.00;;;;;;10435673;28;20352;-78
2023/10/04 15:45:56;;;;;;;9.77;3.73;;;14.40;99.90;;;;;;10435973;28;20207;-78
2023/10/04 15:51:18;;;;;;;9.43;3.72;;;14.30;99.90;;;;;;10438279;28;20265;-77
2023/10/04 15:56:39;;;;;;;11.27;3.77;;;14.20;99.90;;;;;;10435717;28;20230;-78
2023/10/04 16:02:00;;;;;;;8.20;3.00;;;14.10;1.00;;;;;;10436582;28;20200;-79
2023/10/04 16:07:22;;;;;;;11.05;3.28;;;14.00;1.00;;;;;;10420009;28;20269;-78
2023/10/04 16:12:46;;;;;;;9.77;3.87;;;14.00;1.00;;;;;;10435960;28;20223;-78
2023/10/04 16:18:07;;;;;;;10.48;3.78;;;13.90;1.00;;;;;;10436065;28;20207;-79
2023/10/04 16:23:29;;;;;;;9.68;4.00;;;13.90;99.90;;;;;;10435151;28;20202;-79
2023/10/04 16:28:49;;;;;;;10.68;3.60;;;13.80;99.90;;;;;;10436626;28;20189;-79
2023/10/04 16:34:11;;;;;;;9.07;4.35;;;13.70;99.90;;;;;;10435120;28;20200;-78
2023/10/04 16:39:32;;;;;;;7.35;3.75;;;13.70;99.90;;;;;;10463492;28;20199;-76
2023/10/04 16:44:54;;;;;;;9.30;3.53;;;13.60;99.90;;;;;;10448993;28;20203;-77
2023/10/04 16:50:18;;;;;;;12.88;5.78;;;13.50;1.00;;;;;;10436469;28;20227;-79
2023/10/04 16:55:39;;;;;;;13.48;4.05;;;13.40;1.00;;;;;;10435022;28;20199;-78
2023/10/04 17:01:01;;;;;;;14.18;4.50;;;13.40;1.00;;;;;;10435223;28;20434;-78
2023/10/04 17:06:22;;;;;;;14.73;5.70;;;13.40;1.00;;;;;;10397768;28;20505;-77
2023/10/04 17:11:43;;;;;;;7.75;4.00;;;13.30;1.00;;;;;;10430239;28;20261;-77
2023/10/04 17:17:04;;;;;;;10.38;4.03;;;13.20;99.90;;;;;;10399708;28;20200;-78
2023/10/04 17:22:26;;;;;;;7.27;3.70;;;13.10;99.90;;;;;;10428117;28;20227;-78
2023/10/04 17:27:48;;;;;;;7.10;3.43;;;13.10;99.90;;;;;;10443720;28;20192;-78
2023/10/04 17:33:10;;;;;;;9.57;3.97;;;13.10;99.90;;;;;;10454929;28;20552;-77
2023/10/04 17:38:31;;;;;;;8.43;4.23;;;13.10;99.90;;;;;;10442365;28;20457;-78
2023/10/04 17:43:52;;;;;;;18.17;10.37;;;13.20;1.00;;;;;;10440807;28;20287;-78
2023/10/04 17:49:13;;;;;;;8.33;4.07;;;13.20;99.90;;;;;;10441852;28;20272;-78
2023/10/04 17:54:35;;;;;;;11.20;4.97;;;13.20;99.90;;;;;;10439839;28;20401;-78
2023/10/04 17:59:56;;;;;;;6.17;3.67;;;13.20;99.90;;;;;;10442665;28;20195;-79
2023/10/04 18:05:17;;;;;;;10.63;4.70;;;13.10;99.90;;;;;;10440080;28;20214;-78
2023/10/04 18:10:38;;;;;;;11.80;4.60;;;13.10;99.90;;;;;;10441656;28;20464;-77
2023/10/04 18:16:00;;;;;;;9.57;4.70;;;13.00;99.90;;;;;;10439148;28;20199;-78
2023/10/04 18:21:21;;;;;;;13.60;6.13;;;12.90;25.50;;;;;;10439643;28;20493;-78
2023/10/04 18:26:42;;;;;;;16.43;6.37;;;12.90;1.00;;;;;;10439369;28;20392;-79
2023/10/04 18:32:04;;;;;;;14.03;5.80;;;12.80;1.00;;;;;;10453885;28;20242;-78
2023/10/04 18:37:25;;;;;;;15.97;6.40;;;12.80;1.00;;;;;;10439708;28;20517;-78
2023/10/04 18:42:48;;;;;;;17.10;5.53;;;12.70;1.00;;;;;;10439695;28;20199;-79
2023/10/04 18:48:09;;;;;;;18.00;8.27;;;12.70;1.00;;;;;;10439680;28;20194;-78
2023/10/04 18:53:31;;;;;;;16.80;6.37;;;12.70;12.40;;;;;;10453398;28;20220;-77
2023/10/04 18:58:52;;;;;;;10.60;4.30;;;12.70;1.00;;;;;;10438736;28;20207;-79
2023/10/04 19:04:14;;;;;;;10.23;3.80;;;12.80;1.00;;;;;;10425112;28;20203;-79
2023/10/04 19:09:36;;;;;;;10.73;3.87;;;12.80;1.00;;;;;;10419751;28;20322;-78
2023/10/04 19:14:57;;;;;;;9.43;3.80;;;12.80;1.00;;;;;;10452096;28;20249;-78
2023/10/04 19:20:20;;;;;;;12.73;4.57;;;12.80;99.90;;;;;;10437914;28;20226;-78
2023/10/04 19:25:48;;;;;;;18.00;6.57;;;12.80;99.90;;;;;;10437313;28;20195;-77
2023/10/04 19:31:10;;;;;;;16.47;5.47;;;12.70;99.90;;;;;;10437127;28;20242;-79
2023/10/04 19:36:32;;;;;;;15.50;5.07;;;12.70;1.00;;;;;;10437445;28;20207;-78
2023/10/04 19:41:53;;;;;;;15.23;4.97;;;12.70;1.00;;;;;;10437897;28;20493;-77
2023/10/04 19:47:18;;;;;;;11.07;5.03;;;12.80;1.00;;;;;;10436430;28;20204;-75
2023/10/04 19:52:39;;;;;;;11.70;5.13;;;12.70;1.00;;;;;;10435572;28;20237;-78
2023/10/04 19:58:01;;;;;;;13.17;4.67;;;12.70;99.90;;;;;;10435524;28;20517;-78
2023/10/04 20:03:22;;;;;;;10.03;4.90;;;12.60;1.00;;;;;;10427419;28;20198;-78
2023/10/04 20:08:43;;;;;;;12.33;4.83;;;12.50;1.00;;;;;;10437328;28;20241;-78
2023/10/04 20:14:04;;;;;;;10.40;3.73;;;12.50;99.90;;;;;;10435327;28;20301;-77
2023/10/04 20:19:28;;;;;;;11.80;4.50;;;12.40;1.00;;;;;;10436360;28;20233;-78
2023/10/04 20:24:50;;;;;;;10.43;4.10;;;12.50;1.00;;;;;;10394204;28;20594;-78
2023/10/04 20:30:13;;;;;;;12.60;4.73;;;12.50;99.90;;;;;;10444999;28;20229;-77
2023/10/04 20:35:35;;;;;;;8.23;4.10;;;12.50;99.90;;;;;;10436305;28;20480;-78
2023/10/04 20:40:56;;;;;;;11.93;4.30;;;12.50;1.00;;;;;;10458372;28;20524;-77
2023/10/04 20:46:18;;;;;;;15.43;4.73;;;12.50;99.90;;;;;;10433384;28;20234;-78
2023/10/04 20:51:39;;;;;;;13.50;5.03;;;12.50;99.90;;;;;;10424304;28;20323;-78
2023/10/04 20:57:01;;;;;;;13.77;5.67;;;12.40;1.00;;;;;;10448449;28;20209;-78
2023/10/04 21:02:22;;;;;;;21.57;6.23;;;12.40;38.20;;;;;;10433671;28;20199;-78
2023/10/04 21:07:43;;;;;;;12.73;4.00;;;12.30;1.00;;;;;;10435886;28;20310;-78
2023/10/04 21:13:05;;;;;;;9.93;4.23;;;12.30;1.00;;;;;;10473618;28;20252;-79
2023/10/04 21:18:32;;;;;;;13.30;4.97;;;12.30;1.00;;;;;;10476027;28;20413;-79
2023/10/04 21:23:53;;;;;;;11.67;4.30;;;12.50;18.60;;;;;;10450894;28;20278;-79
2023/10/04 21:29:18;;;;;;;11.90;3.90;;;12.20;99.90;;;;;;10435894;28;20199;-79
2023/10/04 21:34:39;;;;;;;12.33;4.67;;;12.20;1.00;;;;;;10433281;28;20234;-79
2023/10/04 21:40:01;;;;;;;14.07;4.30;;;12.20;99.90;;;;;;10435431;28;20194;-78
2023/10/04 21:45:25;;;;;;;12.53;4.40;;;12.20;99.90;;;;;;10468879;28;20232;-78
2023/10/04 21:50:51;;;;;;;11.27;4.03;;;12.10;99.90;;;;;;10467020;28;20218;-78
2023/10/04 21:56:13;;;;;;;10.23;4.60;;;12.10;1.00;;;;;;10435292;28;20190;-79
2023/10/04 22:01:35;;;;;;;10.70;4.27;;;12.00;1.00;;;;;;10438579;28;20208;-78
2023/10/04 22:06:56;;;;;;;11.10;4.30;;;12.00;1.00;;;;;;10461336;28;20531;-78
2023/10/04 22:12:24;;;;;;;10.17;3.97;;;12.00;1.00;;;;;;10469323;28;20308;-78
2023/10/04 22:17:46;;;;;;;11.67;3.97;;;12.00;99.90;;;;;;10441803;28;20195;-77
2023/10/04 22:23:09;;;;;;;9.57;3.60;;;12.00;1.00;;;;;;10445276;28;20533;-79
2023/10/04 22:28:30;;;;;;;12.27;4.20;;;12.00;1.00;;;;;;10449637;28;20194;-77
2023/10/04 22:33:52;;;;;;;12.63;4.30;;;12.00;1.00;;;;;;10461925;28;20542;-78
2023/10/04 22:39:15;;;;;;;13.37;4.40;;;12.00;99.90;;;;;;10448667;28;20429;-79
2023/10/04 22:44:37;;;;;;;9.20;3.40;;;12.10;1.00;;;;;;10448684;28;20378;-78
2023/10/04 22:49:58;;;;;;;13.43;4.10;;;12.20;99.90;;;;;;10467971;28;20224;-78
2023/10/04 22:55:20;;;;;;;8.07;3.20;;;12.20;1.00;;;;;;10439621;28;20205;-77
2023/10/04 23:00:41;;;;;;;9.10;3.93;;;12.30;99.90;;;;;;10481554;28;20192;-78
2023/10/04 23:06:03;;;;;;;19.10;4.47;;;12.40;99.90;;;;;;10438011;28;20204;-78
2023/10/04 23:11:27;;;;;;;9.93;3.80;;;12.40;1.00;;;;;;10437955;28;20404;-78
2023/10/04 23:16:57;;;;;;;8.20;3.40;;;12.40;99.90;;;;;;10438521;28;20199;-77
2023/10/04 23:22:18;;;;;;;8.70;3.47;;;12.40;1.00;;;;;;10437632;28;20276;-78
2023/10/04 23:27:41;;;;;;;7.30;3.70;;;12.40;1.00;;;;;;10438735;28;20386;-78
2023/10/04 23:33:08;;;;;;;9.93;3.90;;;12.30;99.90;;;;;;10451456;28;20253;-77
2023/10/04 23:43:55;;;;;;;10.73;4.13;;;12.30;99.90;;;;;;10436507;28;20217;-78
2023/10/04 23:54:38;;;;;;;11.23;3.47;;;12.20;99.90;;;;;;10437531;28;20214;-78
